sensor_id;sensor_type;location;lat;lon;timestamp;temperature;humidity
16643;DHT22;8435;52.184;5.406;2023-11-21T00:02:14;10.50;99.90
16643;DHT22;8435;52.184;5.406;2023-11-21T00:04:41;10.60;99.90
16643;DHT22;8435;52.184;5.406;2023-11-21T00:07:08;10.50;99.90
16643;DHT22;8435;52.184;5.406;2023-11-21T00:09:36;10.50;99.90
16643;DHT22;8435;52.184;5.406;2023-11-21T00:12:04;10.50;99.90
16643;DHT22;8435;52.184;5.406;2023-11-21T00:14:31;10.50;99.90
16643;DHT22;8435;52.184;5.406;2023-11-21T00:16:59;10.50;99.90
16643;DHT22;8435;52.184;5.406;2023-11-21T00:19:26;10.60;99.90
16643;DHT22;8435;52.184;5.406;2023-11-21T00:21:53;10.60;99.90
16643;DHT22;8435;52.184;5.406;2023-11-21T00:24:20;10.60;99.90
16643;DHT22;8435;52.184;5.406;2023-11-21T00:26:48;10.50;99.90
16643;DHT22;8435;52.184;5.406;2023-11-21T00:29:14;10.60;99.90
16643;DHT22;8435;52.184;5.406;2023-11-21T00:31:43;10.60;99.90
16643;DHT22;8435;52.184;5.406;2023-11-21T00:34:11;10.60;99.90
16643;DHT22;8435;52.184;5.406;2023-11-21T00:36:38;10.60;99.90
16643;DHT22;8435;52.184;5.406;2023-11-21T00:39:04;10.60;99.90
16643;DHT22;8435;52.184;5.406;2023-11-21T00:41:32;10.50;99.90
16643;DHT22;8435;52.184;5.406;2023-11-21T00:44:00;10.60;99.90
16643;DHT22;8435;52.184;5.406;2023-11-21T00:46:27;10.50;99.90
16643;DHT22;8435;52.184;5.406;2023-11-21T00:48:54;10.50;99.90
16643;DHT22;8435;52.184;5.406;2023-11-21T00:51:22;10.50;99.90
16643;DHT22;8435;52.184;5.406;2023-11-21T00:53:49;10.50;99.90
16643;DHT22;8435;52.184;5.406;2023-11-21T00:56:16;10.50;99.90
16643;DHT22;8435;52.184;5.406;2023-11-21T00:58:42;10.50;99.90
16643;DHT22;8435;52.184;5.406;2023-11-21T01:01:13;10.50;99.90
16643;DHT22;8435;52.184;5.406;2023-11-21T01:03:40;10.50;99.90
16643;DHT22;8435;52.184;5.406;2023-11-21T01:06:07;10.50;99.90
16643;DHT22;8435;52.184;5.406;2023-11-21T01:08:34;10.50;99.90
16643;DHT22;8435;52.184;5.406;2023-11-21T01:11:02;10.50;99.90
16643;DHT22;8435;52.184;5.406;2023-11-21T01:13:29;10.50;99.90
16643;DHT22;8435;52.184;5.406;2023-11-21T01:15:57;10.50;99.90
16643;DHT22;8435;52.184;5.406;2023-11-21T01:18:25;10.50;99.90
16643;DHT22;8435;52.184;5.406;2023-11-21T01:20:52;10.50;99.90
16643;DHT22;8435;52.184;5.406;2023-11-21T01:23:19;10.50;99.90
16643;DHT22;8435;52.184;5.406;2023-11-21T01:25:46;10.60;99.90
16643;DHT22;8435;52.184;5.406;2023-11-21T01:28:13;10.60;99.90
16643;DHT22;8435;52.184;5.406;2023-11-21T01:30:40;10.60;99.90
16643;DHT22;8435;52.184;5.406;2023-11-21T01:33:06;10.60;99.90
16643;DHT22;8435;52.184;5.406;2023-11-21T01:35:35;10.60;99.90
16643;DHT22;8435;52.184;5.406;2023-11-21T01:38:02;10.60;99.90
16643;DHT22;8435;52.184;5.406;2023-11-21T01:40:29;10.70;99.90
16643;DHT22;8435;52.184;5.406;2023-11-21T01:42:56;10.70;99.90
16643;DHT22;8435;52.184;5.406;2023-11-21T01:45:23;10.70;99.90
16643;DHT22;8435;52.184;5.406;2023-11-21T01:47:50;10.70;99.90
16643;DHT22;8435;52.184;5.406;2023-11-21T01:50:18;10.70;99.90
16643;DHT22;8435;52.184;5.406;2023-11-21T01:52:46;10.80;99.90
16643;DHT22;8435;52.184;5.406;2023-11-21T01:55:16;10.80;99.90
16643;DHT22;8435;52.184;5.406;2023-11-21T01:57:45;10.80;99.90
16643;DHT22;8435;52.184;5.406;2023-11-21T02:00:13;10.80;99.90
16643;DHT22;8435;52.184;5.406;2023-11-21T02:02:42;10.90;99.90
16643;DHT22;8435;52.184;5.406;2023-11-21T02:05:10;10.90;99.90
16643;DHT22;8435;52.184;5.406;2023-11-21T02:07:38;10.90;99.90
16643;DHT22;8435;52.184;5.406;2023-11-21T02:10:07;10.90;99.90
16643;DHT22;8435;52.184;5.406;2023-11-21T02:12:35;11.00;99.90
16643;DHT22;8435;52.184;5.406;2023-11-21T02:15:02;11.00;99.90
16643;DHT22;8435;52.184;5.406;2023-11-21T02:17:31;11.00;99.90
16643;DHT22;8435;52.184;5.406;2023-11-21T02:19:58;11.00;99.90
16643;DHT22;8435;52.184;5.406;2023-11-21T02:22:27;11.00;99.90
16643;DHT22;8435;52.184;5.406;2023-11-21T02:24:57;11.10;99.90
16643;DHT22;8435;52.184;5.406;2023-11-21T02:27:24;11.10;99.90
16643;DHT22;8435;52.184;5.406;2023-11-21T02:29:52;11.10;99.90
16643;DHT22;8435;52.184;5.406;2023-11-21T02:32:19;11.10;99.90
16643;DHT22;8435;52.184;5.406;2023-11-21T02:34:48;11.10;99.90
16643;DHT22;8435;52.184;5.406;2023-11-21T02:37:15;11.20;99.90
16643;DHT22;8435;52.184;5.406;2023-11-21T02:39:42;11.20;99.90
16643;DHT22;8435;52.184;5.406;2023-11-21T02:42:10;11.20;99.90
16643;DHT22;8435;52.184;5.406;2023-11-21T02:44:37;11.20;99.90
16643;DHT22;8435;52.184;5.406;2023-11-21T02:47:04;11.30;99.90
16643;DHT22;8435;52.184;5.406;2023-11-21T02:49:31;11.30;99.90
16643;DHT22;8435;52.184;5.406;2023-11-21T02:51:59;11.30;99.90
16643;DHT22;8435;52.184;5.406;2023-11-21T02:54:26;11.30;99.90
16643;DHT22;8435;52.184;5.406;2023-11-21T02:56:53;11.30;99.90
16643;DHT22;8435;52.184;5.406;2023-11-21T02:59:22;11.30;99.90
16643;DHT22;8435;52.184;5.406;2023-11-21T03:01:48;11.40;99.90
16643;DHT22;8435;52.184;5.406;2023-11-21T03:04:15;11.40;99.90
16643;DHT22;8435;52.184;5.406;2023-11-21T03:06:43;11.40;99.90
16643;DHT22;8435;52.184;5.406;2023-11-21T03:09:10;11.40;99.90
16643;DHT22;8435;52.184;5.406;2023-11-21T03:11:38;11.40;99.90
16643;DHT22;8435;52.184;5.406;2023-11-21T03:14:05;11.40;99.90
16643;DHT22;8435;52.184;5.406;2023-11-21T03:16:33;11.40;99.90
16643;DHT22;8435;52.184;5.406;2023-11-21T03:19:00;11.40;99.90
16643;DHT22;8435;52.184;5.406;2023-11-21T03:21:27;11.50;99.90
16643;DHT22;8435;52.184;5.406;2023-11-21T03:23:54;11.40;99.90
16643;DHT22;8435;52.184;5.406;2023-11-21T03:26:21;11.40;99.90
16643;DHT22;8435;52.184;5.406;2023-11-21T03:28:48;11.40;99.90
16643;DHT22;8435;52.184;5.406;2023-11-21T03:31:15;11.40;99.90
16643;DHT22;8435;52.184;5.406;2023-11-21T03:33:45;11.40;99.90
16643;DHT22;8435;52.184;5.406;2023-11-21T03:36:12;11.40;99.90
16643;DHT22;8435;52.184;5.406;2023-11-21T03:38:40;11.40;99.90
16643;DHT22;8435;52.184;5.406;2023-11-21T03:41:07;11.40;99.90
16643;DHT22;8435;52.184;5.406;2023-11-21T03:43:35;11.40;99.90
16643;DHT22;8435;52.184;5.406;2023-11-21T03:46:02;11.40;99.90
16643;DHT22;8435;52.184;5.406;2023-11-21T03:48:29;11.30;99.90
16643;DHT22;8435;52.184;5.406;2023-11-21T03:50:57;11.30;99.90
16643;DHT22;8435;52.184;5.406;2023-11-21T03:53:24;11.30;99.90
16643;DHT22;8435;52.184;5.406;2023-11-21T03:55:50;11.40;99.90
16643;DHT22;8435;52.184;5.406;2023-11-21T03:58:17;11.40;99.90
16643;DHT22;8435;52.184;5.406;2023-11-21T04:00:44;11.40;99.90
16643;DHT22;8435;52.184;5.406;2023-11-21T04:03:11;11.40;99.90
16643;DHT22;8435;52.184;5.406;2023-11-21T04:05:39;11.40;99.90
16643;DHT22;8435;52.184;5.406;2023-11-21T04:08:08;11.40;99.90
16643;DHT22;8435;52.184;5.406;2023-11-21T04:10:34;11.40;99.90
16643;DHT22;8435;52.184;5.406;2023-11-21T04:13:01;11.40;99.90
16643;DHT22;8435;52.184;5.406;2023-11-21T04:15:28;11.40;99.90
16643;DHT22;8435;52.184;5.406;2023-11-21T04:17:55;11.50;99.90
16643;DHT22;8435;52.184;5.406;2023-11-21T04:20:22;11.50;99.90
16643;DHT22;8435;52.184;5.406;2023-11-21T04:22:49;11.50;99.90
16643;DHT22;8435;52.184;5.406;2023-11-21T04:25:17;11.50;99.90
16643;DHT22;8435;52.184;5.406;2023-11-21T04:27:44;11.50;99.90
16643;DHT22;8435;52.184;5.406;2023-11-21T04:30:12;11.50;99.90
16643;DHT22;8435;52.184;5.406;2023-11-21T04:32:39;11.60;99.90
16643;DHT22;8435;52.184;5.406;2023-11-21T04:35:08;11.60;99.90
16643;DHT22;8435;52.184;5.406;2023-11-21T04:37:35;11.60;99.90
16643;DHT22;8435;52.184;5.406;2023-11-21T04:40:02;11.60;99.90
16643;DHT22;8435;52.184;5.406;2023-11-21T04:42:34;11.50;99.90
16643;DHT22;8435;52.184;5.406;2023-11-21T04:45:00;11.60;99.90
16643;DHT22;8435;52.184;5.406;2023-11-21T04:47:30;11.60;99.90
16643;DHT22;8435;52.184;5.406;2023-11-21T04:49:57;11.60;99.90
16643;DHT22;8435;52.184;5.406;2023-11-21T04:52:24;11.60;99.90
16643;DHT22;8435;52.184;5.406;2023-11-21T04:54:51;11.60;99.90
16643;DHT22;8435;52.184;5.406;2023-11-21T04:57:19;11.60;99.90
16643;DHT22;8435;52.184;5.406;2023-11-21T04:59:48;11.60;99.90
16643;DHT22;8435;52.184;5.406;2023-11-21T05:02:15;11.60;99.90
16643;DHT22;8435;52.184;5.406;2023-11-21T05:04:44;11.50;99.90
16643;DHT22;8435;52.184;5.406;2023-11-21T05:07:11;11.60;99.90
16643;DHT22;8435;52.184;5.406;2023-11-21T05:09:41;11.60;99.90
16643;DHT22;8435;52.184;5.406;2023-11-21T05:12:09;11.60;99.90
16643;DHT22;8435;52.184;5.406;2023-11-21T05:14:37;11.60;99.90
16643;DHT22;8435;52.184;5.406;2023-11-21T05:17:05;11.60;99.90
16643;DHT22;8435;52.184;5.406;2023-11-21T05:19:33;11.60;99.90
16643;DHT22;8435;52.184;5.406;2023-11-21T05:22:01;11.60;99.90
16643;DHT22;8435;52.184;5.406;2023-11-21T05:24:28;11.70;99.90
16643;DHT22;8435;52.184;5.406;2023-11-21T05:26:55;11.60;99.90
16643;DHT22;8435;52.184;5.406;2023-11-21T05:29:22;11.70;99.90
16643;DHT22;8435;52.184;5.406;2023-11-21T05:31:49;11.70;99.90
16643;DHT22;8435;52.184;5.406;2023-11-21T05:34:17;11.70;99.90
16643;DHT22;8435;52.184;5.406;2023-11-21T05:36:46;11.70;99.90
16643;DHT22;8435;52.184;5.406;2023-11-21T05:39:14;11.70;99.90
16643;DHT22;8435;52.184;5.406;2023-11-21T05:41:42;11.70;99.90
16643;DHT22;8435;52.184;5.406;2023-11-21T05:44:09;11.70;99.90
16643;DHT22;8435;52.184;5.406;2023-11-21T05:46:36;11.70;99.90
16643;DHT22;8435;52.184;5.406;2023-11-21T05:49:03;11.70;99.90
16643;DHT22;8435;52.184;5.406;2023-11-21T05:51:31;11.70;99.90
16643;DHT22;8435;52.184;5.406;2023-11-21T05:53:57;11.70;99.90
16643;DHT22;8435;52.184;5.406;2023-11-21T05:56:24;11.70;99.90
16643;DHT22;8435;52.184;5.406;2023-11-21T05:58:51;11.70;99.90
16643;DHT22;8435;52.184;5.406;2023-11-21T06:01:18;11.70;99.90
16643;DHT22;8435;52.184;5.406;2023-11-21T06:03:45;11.70;99.90
16643;DHT22;8435;52.184;5.406;2023-11-21T06:06:12;11.70;99.90
16643;DHT22;8435;52.184;5.406;2023-11-21T06:08:40;11.70;99.90
16643;DHT22;8435;52.184;5.406;2023-11-21T06:11:07;11.70;99.90
16643;DHT22;8435;52.184;5.406;2023-11-21T06:13:34;11.80;99.90
16643;DHT22;8435;52.184;5.406;2023-11-21T06:16:00;11.80;99.90
16643;DHT22;8435;52.184;5.406;2023-11-21T06:18:27;11.80;99.90
16643;DHT22;8435;52.184;5.406;2023-11-21T06:20:54;11.80;99.90
16643;DHT22;8435;52.184;5.406;2023-11-21T06:23:21;11.80;99.90
16643;DHT22;8435;52.184;5.406;2023-11-21T06:25:49;11.80;99.90
16643;DHT22;8435;52.184;5.406;2023-11-21T06:28:16;11.80;99.90
16643;DHT22;8435;52.184;5.406;2023-11-21T06:30:44;11.80;99.90
16643;DHT22;8435;52.184;5.406;2023-11-21T06:33:11;11.80;99.90
16643;DHT22;8435;52.184;5.406;2023-11-21T06:35:38;11.80;99.90
16643;DHT22;8435;52.184;5.406;2023-11-21T06:38:05;11.90;99.90
16643;DHT22;8435;52.184;5.406;2023-11-21T06:40:32;11.90;99.90
16643;DHT22;8435;52.184;5.406;2023-11-21T06:43:01;11.90;99.90
16643;DHT22;8435;52.184;5.406;2023-11-21T06:45:28;11.90;99.90
16643;DHT22;8435;52.184;5.406;2023-11-21T06:47:54;11.90;99.90
16643;DHT22;8435;52.184;5.406;2023-11-21T06:50:27;11.90;99.90
16643;DHT22;8435;52.184;5.406;2023-11-21T06:53:09;12.00;99.90
16643;DHT22;8435;52.184;5.406;2023-11-21T06:55:44;12.00;99.90
16643;DHT22;8435;52.184;5.406;2023-11-21T06:58:13;12.00;99.90
16643;DHT22;8435;52.184;5.406;2023-11-21T07:00:41;12.10;99.90
16643;DHT22;8435;52.184;5.406;2023-11-21T07:03:12;12.00;99.90
16643;DHT22;8435;52.184;5.406;2023-11-21T07:05:38;12.00;99.90
16643;DHT22;8435;52.184;5.406;2023-11-21T07:08:05;12.10;99.90
16643;DHT22;8435;52.184;5.406;2023-11-21T07:10:33;12.10;99.90
16643;DHT22;8435;52.184;5.406;2023-11-21T07:13:00;12.10;99.90
16643;DHT22;8435;52.184;5.406;2023-11-21T07:15:28;12.10;99.90
16643;DHT22;8435;52.184;5.406;2023-11-21T07:17:55;12.10;99.90
16643;DHT22;8435;52.184;5.406;2023-11-21T07:20:22;12.20;99.90
16643;DHT22;8435;52.184;5.406;2023-11-21T07:22:49;12.10;99.90
16643;DHT22;8435;52.184;5.406;2023-11-21T07:25:15;12.20;99.90
16643;DHT22;8435;52.184;5.406;2023-11-21T07:27:42;12.20;99.90
16643;DHT22;8435;52.184;5.406;2023-11-21T07:30:11;12.20;99.90
16643;DHT22;8435;52.184;5.406;2023-11-21T07:32:40;12.30;99.90
16643;DHT22;8435;52.184;5.406;2023-11-21T07:35:07;12.30;99.90
16643;DHT22;8435;52.184;5.406;2023-11-21T07:37:34;12.30;99.90
16643;DHT22;8435;52.184;5.406;2023-11-21T07:40:01;12.40;99.90
16643;DHT22;8435;52.184;5.406;2023-11-21T07:42:28;12.40;99.90
16643;DHT22;8435;52.184;5.406;2023-11-21T07:44:55;12.40;99.90
16643;DHT22;8435;52.184;5.406;2023-11-21T07:47:21;12.50;99.90
16643;DHT22;8435;52.184;5.406;2023-11-21T07:49:53;12.50;99.90
16643;DHT22;8435;52.184;5.406;2023-11-21T07:52:21;12.50;99.90
16643;DHT22;8435;52.184;5.406;2023-11-21T07:54:48;12.60;99.90
16643;DHT22;8435;52.184;5.406;2023-11-21T07:57:14;12.60;99.90
16643;DHT22;8435;52.184;5.406;2023-11-21T07:59:41;12.70;99.90
16643;DHT22;8435;52.184;5.406;2023-11-21T08:02:08;12.70;99.90
16643;DHT22;8435;52.184;5.406;2023-11-21T08:04:35;12.70;99.90
16643;DHT22;8435;52.184;5.406;2023-11-21T08:07:03;12.70;99.90
16643;DHT22;8435;52.184;5.406;2023-11-21T08:09:30;12.80;99.90
16643;DHT22;8435;52.184;5.406;2023-11-21T08:11:58;12.80;99.90
16643;DHT22;8435;52.184;5.406;2023-11-21T08:14:26;12.90;99.90
16643;DHT22;8435;52.184;5.406;2023-11-21T08:16:52;12.90;99.90
16643;DHT22;8435;52.184;5.406;2023-11-21T08:19:23;12.90;99.90
16643;DHT22;8435;52.184;5.406;2023-11-21T08:21:50;13.00;99.90
16643;DHT22;8435;52.184;5.406;2023-11-21T08:24:21;13.00;99.90
16643;DHT22;8435;52.184;5.406;2023-11-21T08:26:48;13.00;99.90
16643;DHT22;8435;52.184;5.406;2023-11-21T08:29:15;13.00;99.90
16643;DHT22;8435;52.184;5.406;2023-11-21T08:31:42;13.10;99.90
16643;DHT22;8435;52.184;5.406;2023-11-21T08:34:10;13.10;99.90
16643;DHT22;8435;52.184;5.406;2023-11-21T08:36:41;13.10;99.90
16643;DHT22;8435;52.184;5.406;2023-11-21T08:39:08;13.10;99.90
16643;DHT22;8435;52.184;5.406;2023-11-21T08:41:37;13.20;99.90
16643;DHT22;8435;52.184;5.406;2023-11-21T08:44:04;13.20;99.90
16643;DHT22;8435;52.184;5.406;2023-11-21T08:46:32;13.20;99.90
16643;DHT22;8435;52.184;5.406;2023-11-21T08:49:00;13.20;99.90
16643;DHT22;8435;52.184;5.406;2023-11-21T08:51:27;13.20;99.90
16643;DHT22;8435;52.184;5.406;2023-11-21T08:53:54;13.20;99.90
16643;DHT22;8435;52.184;5.406;2023-11-21T08:56:24;13.20;99.90
16643;DHT22;8435;52.184;5.406;2023-11-21T08:58:52;13.30;99.90
16643;DHT22;8435;52.184;5.406;2023-11-21T09:01:19;13.30;99.90
16643;DHT22;8435;52.184;5.406;2023-11-21T09:03:46;13.40;99.90
16643;DHT22;8435;52.184;5.406;2023-11-21T09:06:13;13.40;99.90
16643;DHT22;8435;52.184;5.406;2023-11-21T09:08:40;13.40;99.90
16643;DHT22;8435;52.184;5.406;2023-11-21T09:11:07;13.50;99.90
16643;DHT22;8435;52.184;5.406;2023-11-21T09:13:34;13.50;99.90
16643;DHT22;8435;52.184;5.406;2023-11-21T09:16:03;13.60;99.90
16643;DHT22;8435;52.184;5.406;2023-11-21T09:18:31;13.60;99.90
16643;DHT22;8435;52.184;5.406;2023-11-21T09:20:57;13.60;99.90
16643;DHT22;8435;52.184;5.406;2023-11-21T09:23:24;13.60;99.90
16643;DHT22;8435;52.184;5.406;2023-11-21T09:25:51;13.60;99.90
16643;DHT22;8435;52.184;5.406;2023-11-21T09:28:22;13.60;99.90
16643;DHT22;8435;52.184;5.406;2023-11-21T09:30:48;13.60;99.90
16643;DHT22;8435;52.184;5.406;2023-11-21T09:33:17;13.50;99.90
16643;DHT22;8435;52.184;5.406;2023-11-21T09:35:43;13.50;99.90
16643;DHT22;8435;52.184;5.406;2023-11-21T09:38:10;13.50;99.90
16643;DHT22;8435;52.184;5.406;2023-11-21T09:40:37;13.60;99.90
16643;DHT22;8435;52.184;5.406;2023-11-21T09:43:07;13.50;99.90
16643;DHT22;8435;52.184;5.406;2023-11-21T09:45:39;13.50;99.90
16643;DHT22;8435;52.184;5.406;2023-11-21T09:48:07;13.50;99.90
16643;DHT22;8435;52.184;5.406;2023-11-21T09:50:42;13.50;99.90
16643;DHT22;8435;52.184;5.406;2023-11-21T09:53:13;13.40;99.90
16643;DHT22;8435;52.184;5.406;2023-11-21T09:55:45;13.40;99.90
16643;DHT22;8435;52.184;5.406;2023-11-21T09:58:13;13.40;99.90
16643;DHT22;8435;52.184;5.406;2023-11-21T10:00:41;13.40;99.90
16643;DHT22;8435;52.184;5.406;2023-11-21T10:03:08;13.40;99.90
16643;DHT22;8435;52.184;5.406;2023-11-21T10:05:35;13.40;99.90
16643;DHT22;8435;52.184;5.406;2023-11-21T10:08:07;13.40;99.90
16643;DHT22;8435;52.184;5.406;2023-11-21T10:10:35;13.30;99.90
16643;DHT22;8435;52.184;5.406;2023-11-21T10:13:05;13.30;99.90
16643;DHT22;8435;52.184;5.406;2023-11-21T10:15:34;13.30;99.90
16643;DHT22;8435;52.184;5.406;2023-11-21T10:18:02;13.30;99.90
16643;DHT22;8435;52.184;5.406;2023-11-21T10:20:30;13.40;99.90
16643;DHT22;8435;52.184;5.406;2023-11-21T10:22:59;13.40;99.90
16643;DHT22;8435;52.184;5.406;2023-11-21T10:25:29;13.40;99.90
16643;DHT22;8435;52.184;5.406;2023-11-21T10:27:58;13.40;99.90
16643;DHT22;8435;52.184;5.406;2023-11-21T10:30:32;13.40;99.90
16643;DHT22;8435;52.184;5.406;2023-11-21T10:33:03;13.40;99.90
16643;DHT22;8435;52.184;5.406;2023-11-21T10:35:42;13.40;99.90
16643;DHT22;8435;52.184;5.406;2023-11-21T10:38:12;13.40;99.90
16643;DHT22;8435;52.184;5.406;2023-11-21T10:40:41;13.40;99.90
16643;DHT22;8435;52.184;5.406;2023-11-21T10:43:10;13.40;99.90
16643;DHT22;8435;52.184;5.406;2023-11-21T10:45:39;13.40;99.90
16643;DHT22;8435;52.184;5.406;2023-11-21T10:48:06;13.40;99.90
16643;DHT22;8435;52.184;5.406;2023-11-21T10:50:34;13.30;99.90
16643;DHT22;8435;52.184;5.406;2023-11-21T10:53:02;13.30;99.90
16643;DHT22;8435;52.184;5.406;2023-11-21T10:55:30;13.30;99.90
16643;DHT22;8435;52.184;5.406;2023-11-21T10:58:00;13.30;99.90
16643;DHT22;8435;52.184;5.406;2023-11-21T11:00:31;13.30;99.90
16643;DHT22;8435;52.184;5.406;2023-11-21T11:02:58;13.30;99.90
16643;DHT22;8435;52.184;5.406;2023-11-21T11:05:26;13.30;99.90
16643;DHT22;8435;52.184;5.406;2023-11-21T11:07:58;13.30;99.90
16643;DHT22;8435;52.184;5.406;2023-11-21T11:10:29;13.30;99.90
16643;DHT22;8435;52.184;5.406;2023-11-21T11:12:58;13.30;99.90
16643;DHT22;8435;52.184;5.406;2023-11-21T11:15:26;13.30;99.90
16643;DHT22;8435;52.184;5.406;2023-11-21T11:17:54;13.30;99.90
16643;DHT22;8435;52.184;5.406;2023-11-21T11:20:23;13.20;99.90
16643;DHT22;8435;52.184;5.406;2023-11-21T11:22:59;13.30;99.90
16643;DHT22;8435;52.184;5.406;2023-11-21T11:25:41;13.20;99.90
16643;DHT22;8435;52.184;5.406;2023-11-21T11:28:18;13.20;99.90
16643;DHT22;8435;52.184;5.406;2023-11-21T11:30:57;13.20;99.90
16643;DHT22;8435;52.184;5.406;2023-11-21T11:33:33;13.20;99.90
16643;DHT22;8435;52.184;5.406;2023-11-21T11:36:06;13.20;99.90
16643;DHT22;8435;52.184;5.406;2023-11-21T11:38:35;13.20;99.90
16643;DHT22;8435;52.184;5.406;2023-11-21T11:41:02;13.20;99.90
16643;DHT22;8435;52.184;5.406;2023-11-21T11:43:32;13.20;99.90
16643;DHT22;8435;52.184;5.406;2023-11-21T11:46:05;13.30;99.90
16643;DHT22;8435;52.184;5.406;2023-11-21T11:48:37;13.30;99.90
16643;DHT22;8435;52.184;5.406;2023-11-21T11:51:06;13.30;99.90
16643;DHT22;8435;52.184;5.406;2023-11-21T11:53:38;13.30;99.90
16643;DHT22;8435;52.184;5.406;2023-11-21T11:56:23;13.30;99.90
16643;DHT22;8435;52.184;5.406;2023-11-21T11:58:53;13.30;99.90
16643;DHT22;8435;52.184;5.406;2023-11-21T12:01:20;13.30;99.90
16643;DHT22;8435;52.184;5.406;2023-11-21T12:04:22;13.40;99.90
16643;DHT22;8435;52.184;5.406;2023-11-21T12:06:55;13.40;99.90
16643;DHT22;8435;52.184;5.406;2023-11-21T12:09:24;13.30;99.90
16643;DHT22;8435;52.184;5.406;2023-11-21T12:11:53;13.40;99.90
16643;DHT22;8435;52.184;5.406;2023-11-21T12:14:21;13.30;99.90
16643;DHT22;8435;52.184;5.406;2023-11-21T12:16:49;13.30;99.90
16643;DHT22;8435;52.184;5.406;2023-11-21T12:19:17;13.40;99.90
16643;DHT22;8435;52.184;5.406;2023-11-21T12:21:43;13.40;99.90
16643;DHT22;8435;52.184;5.406;2023-11-21T12:24:10;13.40;99.90
16643;DHT22;8435;52.184;5.406;2023-11-21T12:26:39;13.40;99.90
16643;DHT22;8435;52.184;5.406;2023-11-21T12:29:06;13.40;99.90
16643;DHT22;8435;52.184;5.406;2023-11-21T12:31:34;13.40;99.90
16643;DHT22;8435;52.184;5.406;2023-11-21T12:34:01;13.40;99.90
16643;DHT22;8435;52.184;5.406;2023-11-21T12:36:29;13.40;99.90
16643;DHT22;8435;52.184;5.406;2023-11-21T12:38:56;13.50;99.90
16643;DHT22;8435;52.184;5.406;2023-11-21T12:41:23;13.50;99.90
16643;DHT22;8435;52.184;5.406;2023-11-21T12:43:50;13.50;99.90
16643;DHT22;8435;52.184;5.406;2023-11-21T12:46:17;13.50;99.90
16643;DHT22;8435;52.184;5.406;2023-11-21T12:48:45;13.50;99.90
16643;DHT22;8435;52.184;5.406;2023-11-21T12:51:12;13.50;99.90
16643;DHT22;8435;52.184;5.406;2023-11-21T12:53:41;13.60;99.90
16643;DHT22;8435;52.184;5.406;2023-11-21T12:56:17;13.50;99.90
16643;DHT22;8435;52.184;5.406;2023-11-21T12:58:58;13.60;99.90
16643;DHT22;8435;52.184;5.406;2023-11-21T13:01:28;13.60;99.90
16643;DHT22;8435;52.184;5.406;2023-11-21T13:03:57;13.60;99.90
16643;DHT22;8435;52.184;5.406;2023-11-21T13:06:25;13.60;99.90
16643;DHT22;8435;52.184;5.406;2023-11-21T13:08:52;13.60;99.90
16643;DHT22;8435;52.184;5.406;2023-11-21T13:11:19;13.60;99.90
16643;DHT22;8435;52.184;5.406;2023-11-21T13:13:46;13.70;99.90
16643;DHT22;8435;52.184;5.406;2023-11-21T13:16:13;13.60;99.90
16643;DHT22;8435;52.184;5.406;2023-11-21T13:18:40;13.60;99.90
16643;DHT22;8435;52.184;5.406;2023-11-21T13:21:09;13.60;99.90
16643;DHT22;8435;52.184;5.406;2023-11-21T13:23:39;13.60;99.90
16643;DHT22;8435;52.184;5.406;2023-11-21T13:26:07;13.60;99.90
16643;DHT22;8435;52.184;5.406;2023-11-21T13:28:34;13.60;99.90
16643;DHT22;8435;52.184;5.406;2023-11-21T13:31:04;13.60;99.90
16643;DHT22;8435;52.184;5.406;2023-11-21T13:33:35;13.60;99.90
16643;DHT22;8435;52.184;5.406;2023-11-21T13:36:04;13.50;99.90
16643;DHT22;8435;52.184;5.406;2023-11-21T13:38:34;13.50;99.90
16643;DHT22;8435;52.184;5.406;2023-11-21T13:41:03;13.50;99.90
16643;DHT22;8435;52.184;5.406;2023-11-21T13:43:33;13.50;99.90
16643;DHT22;8435;52.184;5.406;2023-11-21T13:46:00;13.40;99.90
16643;DHT22;8435;52.184;5.406;2023-11-21T13:48:34;13.40;99.90
16643;DHT22;8435;52.184;5.406;2023-11-21T13:51:07;13.40;99.90
16643;DHT22;8435;52.184;5.406;2023-11-21T13:53:42;13.40;99.90
16643;DHT22;8435;52.184;5.406;2023-11-21T13:56:10;13.30;99.90
16643;DHT22;8435;52.184;5.406;2023-11-21T13:58:38;13.30;99.90
16643;DHT22;8435;52.184;5.406;2023-11-21T14:01:12;13.30;99.90
16643;DHT22;8435;52.184;5.406;2023-11-21T14:03:58;13.20;99.90
16643;DHT22;8435;52.184;5.406;2023-11-21T14:06:34;13.20;99.90
16643;DHT22;8435;52.184;5.406;2023-11-21T14:09:09;13.20;99.90
16643;DHT22;8435;52.184;5.406;2023-11-21T14:11:50;13.10;99.90
16643;DHT22;8435;52.184;5.406;2023-11-21T14:14:19;13.10;99.90
16643;DHT22;8435;52.184;5.406;2023-11-21T14:16:45;13.10;99.90
16643;DHT22;8435;52.184;5.406;2023-11-21T14:19:13;13.00;99.90
16643;DHT22;8435;52.184;5.406;2023-11-21T14:21:42;13.00;99.90
16643;DHT22;8435;52.184;5.406;2023-11-21T14:24:11;13.00;99.90
16643;DHT22;8435;52.184;5.406;2023-11-21T14:26:40;13.00;99.90
16643;DHT22;8435;52.184;5.406;2023-11-21T14:29:07;12.90;99.90
16643;DHT22;8435;52.184;5.406;2023-11-21T14:31:40;12.90;99.90
16643;DHT22;8435;52.184;5.406;2023-11-21T14:34:07;12.90;99.90
16643;DHT22;8435;52.184;5.406;2023-11-21T14:36:38;12.90;99.90
16643;DHT22;8435;52.184;5.406;2023-11-21T14:39:05;12.90;99.90
16643;DHT22;8435;52.184;5.406;2023-11-21T14:41:38;12.80;99.90
16643;DHT22;8435;52.184;5.406;2023-11-21T14:44:05;12.80;99.90
16643;DHT22;8435;52.184;5.406;2023-11-21T14:46:37;12.80;99.90
16643;DHT22;8435;52.184;5.406;2023-11-21T14:49:05;12.80;99.90
16643;DHT22;8435;52.184;5.406;2023-11-21T14:51:45;12.70;99.90
16643;DHT22;8435;52.184;5.406;2023-11-21T14:54:29;12.70;99.90
16643;DHT22;8435;52.184;5.406;2023-11-21T14:57:15;12.70;99.90
16643;DHT22;8435;52.184;5.406;2023-11-21T14:59:44;12.60;99.90
16643;DHT22;8435;52.184;5.406;2023-11-21T15:02:13;12.50;99.90
16643;DHT22;8435;52.184;5.406;2023-11-21T15:04:46;12.50;99.90
16643;DHT22;8435;52.184;5.406;2023-11-21T15:07:14;12.60;99.90
16643;DHT22;8435;52.184;5.406;2023-11-21T15:09:40;12.50;99.90
16643;DHT22;8435;52.184;5.406;2023-11-21T15:12:10;12.40;99.90
16643;DHT22;8435;52.184;5.406;2023-11-21T15:14:41;12.40;99.90
16643;DHT22;8435;52.184;5.406;2023-11-21T15:17:08;12.40;99.90
16643;DHT22;8435;52.184;5.406;2023-11-21T15:19:35;12.30;99.90
16643;DHT22;8435;52.184;5.406;2023-11-21T15:22:02;12.30;99.90
16643;DHT22;8435;52.184;5.406;2023-11-21T15:24:29;12.30;99.90
16643;DHT22;8435;52.184;5.406;2023-11-21T15:26:56;12.20;99.90
16643;DHT22;8435;52.184;5.406;2023-11-21T15:29:26;12.20;99.90
16643;DHT22;8435;52.184;5.406;2023-11-21T15:31:53;12.20;99.90
16643;DHT22;8435;52.184;5.406;2023-11-21T15:34:22;12.20;99.90
16643;DHT22;8435;52.184;5.406;2023-11-21T15:36:49;12.10;99.90
16643;DHT22;8435;52.184;5.406;2023-11-21T15:39:18;12.10;99.90
16643;DHT22;8435;52.184;5.406;2023-11-21T15:41:47;12.10;99.90
16643;DHT22;8435;52.184;5.406;2023-11-21T15:44:13;12.00;99.90
16643;DHT22;8435;52.184;5.406;2023-11-21T15:46:41;12.00;99.90
16643;DHT22;8435;52.184;5.406;2023-11-21T15:49:08;11.90;99.90
16643;DHT22;8435;52.184;5.406;2023-11-21T15:51:39;11.90;99.90
16643;DHT22;8435;52.184;5.406;2023-11-21T15:54:06;11.80;99.90